createdAt,value
2022-08-07T00:00:26.000Z,96876.91
2022-08-07T00:02:55.940Z,96882.81
2022-08-07T00:05:24.103Z,96883.06
2022-08-07T00:07:59.959Z,96881.19
2022-08-07T00:10:30.517Z,96882.88
2022-08-07T00:13:02.170Z,96883.97
2022-08-07T00:15:38.155Z,96880.28
2022-08-07T00:18:19.750Z,96867.22
2022-08-07T00:20:52.562Z,96868.78
2022-08-07T00:23:21.804Z,96865.06
2022-08-07T00:25:58.210Z,96863.38
2022-08-07T00:28:33.319Z,96862.03
2022-08-07T00:31:04.448Z,96852.56
2022-08-07T00:33:34.011Z,96844.63
2022-08-07T00:36:01.855Z,96837.41
2022-08-07T00:38:33.223Z,96845.31
2022-08-07T00:41:01.792Z,96841.84
2022-08-07T00:44:00.387Z,96843.97
2022-08-07T00:46:17.361Z,96837.41
2022-08-07T00:48:49.692Z,96845.00
2022-08-07T00:51:17.872Z,96838.25
2022-08-07T00:53:50.829Z,96837.09
2022-08-07T00:56:23.475Z,96831.97
2022-08-07T00:58:58.330Z,96831.19
2022-08-07T01:01:26.253Z,96832.50
2022-08-07T01:03:59.935Z,96828.78
2022-08-07T01:06:28.641Z,96826.81
2022-08-07T01:09:01.216Z,96821.13
2022-08-07T01:12:24.025Z,96824.94
2022-08-07T01:14:17.907Z,96824.56
2022-08-07T01:16:50.446Z,96816.00
2022-08-07T01:19:20.044Z,96808.63
2022-08-07T01:21:53.302Z,96814.66
2022-08-07T01:24:21.944Z,96808.31
2022-08-07T01:26:51.916Z,96805.41
2022-08-07T01:29:22.101Z,96810.44
2022-08-07T01:31:50.570Z,96803.09
2022-08-07T01:34:19.113Z,96806.78
2022-08-07T01:36:52.744Z,96804.34
2022-08-07T01:39:26.852Z,96805.53
2022-08-07T01:42:38.268Z,96788.81
2022-08-07T01:44:57.584Z,96794.66
2022-08-07T01:48:18.534Z,96797.66
2022-08-07T01:50:14.182Z,96796.53
2022-08-07T01:52:54.032Z,96793.56
2022-08-07T01:55:26.852Z,96800.78
2022-08-07T01:58:01.652Z,96800.53
2022-08-07T02:00:45.277Z,96798.88
2022-08-07T02:03:26.424Z,96796.69
2022-08-07T02:06:01.071Z,96798.97
2022-08-07T02:08:35.467Z,96795.69
2022-08-07T02:11:06.335Z,96804.75
2022-08-07T02:13:59.839Z,96790.75
2022-08-07T02:16:28.703Z,96782.09
2022-08-07T02:19:05.331Z,96804.84
2022-08-07T02:21:55.276Z,96804.34
2022-08-07T02:24:26.007Z,96811.06
2022-08-07T02:26:58.434Z,96812.94
2022-08-07T02:29:30.632Z,96808.53
2022-08-07T02:32:00.177Z,96808.53
2022-08-07T02:34:29.075Z,96803.97
2022-08-07T02:36:59.960Z,96805.53
2022-08-07T02:39:43.907Z,96801.47
2022-08-07T02:42:19.448Z,96798.47
2022-08-07T02:44:51.986Z,96798.97
2022-08-07T02:47:23.489Z,96797.59
2022-08-07T02:49:57.665Z,96801.97
2022-08-07T02:52:34.938Z,96792.78
2022-08-07T02:55:15.302Z,96781.44
2022-08-07T02:58:02.763Z,96780.38
2022-08-07T03:00:35.366Z,96780.97
2022-08-07T03:03:06.265Z,96776.72
2022-08-07T03:05:37.840Z,96784.81
2022-08-07T03:08:10.533Z,96770.78
2022-08-07T03:10:46.307Z,96784.38
2022-08-07T03:13:19.301Z,96774.22
2022-08-07T03:15:56.742Z,96783.09
2022-08-07T03:18:35.084Z,96779.91
2022-08-07T03:21:08.180Z,96791.06
2022-08-07T03:24:20.527Z,96784.13
2022-08-07T03:26:32.380Z,96776.53
2022-08-07T03:29:03.431Z,96781.94
2022-08-07T03:31:42.562Z,96784.72
2022-08-07T03:34:18.828Z,96780.28
2022-08-07T03:36:51.110Z,96787.00
2022-08-07T03:39:59.298Z,96774.28
2022-08-07T03:42:11.273Z,96778.44
2022-08-07T03:44:40.424Z,96781.91
2022-08-07T03:47:13.679Z,96783.03
2022-08-07T03:49:51.850Z,96782.78
2022-08-07T03:52:26.352Z,96785.31
2022-08-07T03:54:57.317Z,96780.94
2022-08-07T03:58:34.045Z,96781.75
2022-08-07T04:00:29.425Z,96782.59
2022-08-07T04:02:59.051Z,96781.03
2022-08-07T04:05:28.772Z,96786.53
2022-08-07T04:08:11.420Z,96789.66
2022-08-07T04:10:39.544Z,96785.91
2022-08-07T04:13:15.163Z,96784.28
2022-08-07T04:15:45.620Z,96770.16
2022-08-07T04:18:58.500Z,96762.13
2022-08-07T04:21:07.257Z,96793.84
2022-08-07T04:23:43.457Z,96785.34
2022-08-07T04:26:23.804Z,96803.03
2022-08-07T04:28:58.536Z,96802.25
2022-08-07T04:31:39.187Z,96794.97
2022-08-07T04:34:16.975Z,96803.31
2022-08-07T04:36:45.359Z,96804.72
2022-08-07T04:39:17.595Z,96813.13
2022-08-07T04:41:50.457Z,96805.31
2022-08-07T04:44:20.151Z,96814.78
2022-08-07T04:47:04.455Z,96817.50
2022-08-07T04:50:03.565Z,96810.75
2022-08-07T04:52:46.824Z,96812.16
2022-08-07T04:58:12.542Z,96819.97
2022-08-07T04:58:35.001Z,96820.81
2022-08-07T05:01:18.042Z,96819.50
2022-08-07T05:04:07.132Z,96810.91
2022-08-07T05:06:43.497Z,96810.06
2022-08-07T05:09:28.083Z,96814.38
2022-08-07T05:12:26.963Z,96804.59
2022-08-07T05:15:04.990Z,96818.44
2022-08-07T05:17:52.203Z,96817.06
2022-08-07T05:20:28.007Z,96819.19
2022-08-07T05:23:05.075Z,96825.72
2022-08-07T05:26:10.457Z,96824.88
2022-08-07T05:28:26.771Z,96823.03
2022-08-07T05:30:57.889Z,96823.06
2022-08-07T05:33:29.874Z,96822.56
2022-08-07T05:35:57.960Z,96824.50
2022-08-07T05:39:00.867Z,96821.50
2022-08-07T05:41:17.017Z,96824.25
2022-08-07T05:44:12.191Z,96828.63
2022-08-07T05:46:39.286Z,96827.84
2022-08-07T05:49:12.197Z,96828.09
2022-08-07T05:51:40.957Z,96821.06
2022-08-07T05:54:30.051Z,96829.75
2022-08-07T05:56:59.695Z,96831.09
2022-08-07T05:59:28.515Z,96829.19
2022-08-07T06:02:08.864Z,96841.66
2022-08-07T06:04:42.905Z,96847.84
2022-08-07T06:07:22.905Z,96838.41
2022-08-07T06:10:15.076Z,96825.94
2022-08-07T06:12:43.384Z,96845.44
2022-08-07T06:15:15.970Z,96841.09
2022-08-07T06:17:53.918Z,96842.19
2022-08-07T06:20:25.429Z,96839.50
2022-08-07T06:23:45.781Z,96848.16
2022-08-07T06:26:02.401Z,96845.19
2022-08-07T06:28:30.180Z,96846.81
2022-08-07T06:30:58.543Z,96831.91
2022-08-07T06:33:27.201Z,96840.03
2022-08-07T06:36:06.372Z,96840.88
2022-08-07T06:38:58.778Z,96842.22
2022-08-07T06:42:02.656Z,96838.16
2022-08-07T06:44:27.340Z,96838.97
2022-08-07T06:47:10.282Z,96849.25
2022-08-07T06:49:52.305Z,96846.00
2022-08-07T06:52:32.023Z,96841.66
2022-08-07T06:55:32.147Z,96838.41
2022-08-07T06:57:57.068Z,96841.13
2022-08-07T07:00:27.530Z,96833.53
2022-08-07T07:02:57.476Z,96827.31
2022-08-07T07:06:05.421Z,96828.13
2022-08-07T07:08:18.648Z,96830.31
2022-08-07T07:10:56.375Z,96828.66
2022-08-07T07:13:43.590Z,96836.25
2022-08-07T07:16:21.389Z,96834.63
2022-08-07T07:18:54.476Z,96831.41
2022-08-07T07:21:40.488Z,96825.44
2022-08-07T07:24:17.211Z,96832.72
2022-08-07T07:26:51.920Z,96829.22
2022-08-07T07:29:56.535Z,96815.41
2022-08-07T07:32:14.656Z,96822.72
2022-08-07T07:34:46.487Z,96830.56
2022-08-07T07:37:45.520Z,96827.06
2022-08-07T07:40:15.291Z,96824.88
2022-08-07T07:42:50.916Z,96826.50
2022-08-07T07:46:37.765Z,96835.19
2022-08-07T07:48:24.198Z,96835.47
2022-08-07T07:51:07.804Z,96837.34
2022-08-07T07:53:48.153Z,96840.56
2022-08-07T07:56:30.207Z,96840.31
2022-08-07T07:59:01.601Z,96845.47
2022-08-07T08:02:02.742Z,96841.41
2022-08-07T08:04:20.278Z,96840.56
2022-08-07T08:06:54.958Z,96846.00
2022-08-07T08:09:29.472Z,96849.25
2022-08-07T08:12:03.872Z,96838.97
2022-08-07T08:14:34.433Z,96825.16
2022-08-07T08:17:32.400Z,96847.09
2022-08-07T08:20:18.574Z,96850.31
2022-08-07T08:23:08.190Z,96844.41
2022-08-07T08:25:56.715Z,96844.41
2022-08-07T08:28:37.901Z,96829.50
2022-08-07T08:31:15.584Z,96846.81
2022-08-07T08:33:49.786Z,96845.19
2022-08-07T08:36:29.681Z,96850.34
2022-08-07T08:39:01.920Z,96853.88
2022-08-07T08:41:59.182Z,96839.25
2022-08-07T08:44:38.324Z,96851.94
2022-08-07T08:47:19.645Z,96849.25
2022-08-07T08:50:05.715Z,96853.88
2022-08-07T08:52:40.835Z,96854.66
2022-08-07T08:55:53.877Z,96857.13
2022-08-07T08:58:28.594Z,96865.75
2022-08-07T09:01:15.008Z,96858.47
2022-08-07T09:03:55.329Z,96844.66
2022-08-07T09:06:36.770Z,96856.59
2022-08-07T09:09:20.982Z,96852.22
2022-08-07T09:12:20.044Z,96857.63
2022-08-07T09:16:21.702Z,96860.06
2022-08-07T09:18:16.835Z,96859.78
2022-08-07T09:21:03.961Z,96861.41
2022-08-07T09:24:31.343Z,96860.81
2022-08-07T09:26:40.542Z,96870.81
2022-08-07T09:30:06.308Z,96861.16
2022-08-07T09:32:23.855Z,96871.41
2022-08-07T09:36:05.426Z,96863.22
2022-08-07T09:38:10.314Z,96871.34
2022-08-07T09:40:52.029Z,96869.69
2022-08-07T09:44:03.666Z,96869.69
2022-08-07T09:47:52.544Z,96862.38
2022-08-07T09:49:59.758Z,96857.22
2022-08-07T09:52:33.858Z,96858.72
2022-08-07T09:55:16.903Z,96870.69
2022-08-07T09:58:08.668Z,96861.03
2022-08-07T10:01:02.922Z,96864.66
2022-08-07T10:04:07.015Z,96862.88
2022-08-07T10:06:56.853Z,96858.69
2022-08-07T10:10:01.148Z,96850.78
2022-08-07T10:12:52.910Z,96866.13
2022-08-07T10:15:44.492Z,96853.84
2022-08-07T10:18:27.064Z,96863.03
2022-08-07T10:21:50.779Z,96853.75
2022-08-07T10:24:15.004Z,96855.44
2022-08-07T10:26:58.738Z,96862.88
2022-08-07T10:29:51.416Z,96851.44
2022-08-07T10:32:51.394Z,96857.56
2022-08-07T10:35:55.425Z,96866.44
2022-08-07T10:38:36.031Z,96858.13
2022-08-07T10:41:51.261Z,96859.81
2022-08-07T10:44:28.790Z,96859.63
2022-08-07T10:47:18.982Z,96854.59
2022-08-07T10:50:04.383Z,96853.84
2022-08-07T10:52:42.670Z,96856.16
2022-08-07T10:55:37.800Z,96857.53
2022-08-07T10:58:36.635Z,96857.53
2022-08-07T11:01:23.768Z,96853.59
2022-08-07T11:04:16.502Z,96851.44
2022-08-07T11:06:54.992Z,96858.28
2022-08-07T11:10:10.093Z,96852.44
2022-08-07T11:12:31.576Z,96857.44
2022-08-07T11:15:14.559Z,96845.28
2022-08-07T11:17:53.882Z,96843.00
2022-08-07T11:20:27.379Z,96838.53
2022-08-07T11:23:09.779Z,96841.00
2022-08-07T11:25:48.303Z,96824.94
2022-08-07T11:28:24.680Z,96841.25
2022-08-07T11:30:57.816Z,96824.97
2022-08-07T11:33:53.961Z,96829.28
2022-08-07T11:36:41.803Z,96829.75
2022-08-07T11:39:19.536Z,96829.59
2022-08-07T11:42:02.050Z,96818.16
2022-08-07T11:44:52.376Z,96823.63
2022-08-07T11:47:55.952Z,96820.06
2022-08-07T11:50:44.573Z,96814.22
2022-08-07T11:53:43.068Z,96809.59
2022-08-07T11:56:37.597Z,96810.44
2022-08-07T12:00:11.593Z,96817.53
2022-08-07T12:02:20.792Z,96809.66
2022-08-07T12:05:15.123Z,96802.41
2022-08-07T12:07:53.490Z,96810.19
2022-08-07T12:10:35.999Z,96800.75
2022-08-07T12:13:17.022Z,96806.88
2022-08-07T12:16:06.619Z,96807.50
2022-08-07T12:18:45.427Z,96793.41
2022-08-07T12:21:55.846Z,96792.00
2022-08-07T12:24:38.081Z,96796.69
2022-08-07T12:27:14.879Z,96787.97
2022-08-07T12:29:51.855Z,96779.84
2022-08-07T12:32:28.533Z,96782.34
2022-08-07T12:35:00.984Z,96783.75
2022-08-07T12:38:10.201Z,96783.97
2022-08-07T12:44:01.576Z,96780.97
2022-08-07T12:46:26.224Z,96781.31
2022-08-07T12:49:10.115Z,96774.03
2022-08-07T12:52:14.134Z,96769.00
2022-08-07T12:54:54.303Z,96774.53
2022-08-07T12:57:39.192Z,96775.84
2022-08-07T13:00:41.741Z,96773.75
2022-08-07T13:03:56.292Z,96773.44
2022-08-07T13:07:00.442Z,96775.63
2022-08-07T13:10:21.438Z,96776.06
2022-08-07T13:12:51.628Z,96770.72
2022-08-07T13:15:29.490Z,96758.88
2022-08-07T13:18:26.423Z,96765.06
2022-08-07T13:21:02.623Z,96765.25
2022-08-07T13:24:00.737Z,96763.75
2022-08-07T13:26:34.802Z,96768.97
2022-08-07T13:29:13.634Z,96756.56
2022-08-07T13:31:57.291Z,96763.13
2022-08-07T13:34:36.601Z,96752.44
2022-08-07T13:37:20.556Z,96748.97
2022-08-07T13:40:36.762Z,96746.16
2022-08-07T13:42:49.685Z,96752.91
2022-08-07T13:46:11.893Z,96751.94
2022-08-07T13:48:27.407Z,96756.78
2022-08-07T13:51:02.185Z,96753.97
2022-08-07T13:54:00.091Z,96740.81
2022-08-07T13:56:35.864Z,96755.91
2022-08-07T13:59:13.535Z,96755.91
2022-08-07T14:02:03.606Z,96747.38
2022-08-07T14:04:36.932Z,96748.25
2022-08-07T14:07:09.574Z,96749.75
2022-08-07T14:10:12.239Z,96741.84
2022-08-07T14:12:41.642Z,96735.63
2022-08-07T14:15:19.211Z,96735.63
2022-08-07T14:18:24.113Z,96728.56
2022-08-07T14:20:49.054Z,96725.34
2022-08-07T14:23:31.401Z,96732.41
2022-08-07T14:26:29.670Z,96737.00
2022-08-07T14:29:05.979Z,96741.00
2022-08-07T14:31:42.733Z,96737.47
2022-08-07T14:34:20.259Z,96745.19
2022-08-07T14:36:55.943Z,96742.19
2022-08-07T14:40:17.597Z,96744.16
2022-08-07T14:42:19.955Z,96738.16
2022-08-07T14:47:46.007Z,96736.84
2022-08-07T14:50:20.397Z,96744.03
2022-08-07T14:52:50.099Z,96739.47
2022-08-07T14:55:19.523Z,96738.31
2022-08-07T14:57:58.631Z,96738.47
2022-08-07T15:00:31.060Z,96730.75
2022-08-07T15:03:00.273Z,96742.53
2022-08-07T15:05:55.122Z,96737.16
2022-08-07T15:08:35.214Z,96734.84
2022-08-07T15:11:53.290Z,96731.31
2022-08-07T15:14:12.718Z,96734.75
2022-08-07T15:20:30.548Z,96732.41
2022-08-07T15:22:31.438Z,96737.28
2022-08-07T15:25:17.050Z,96729.97
2022-08-07T15:31:05.115Z,96725.34
2022-08-07T15:33:33.483Z,96729.75
2022-08-07T15:36:05.361Z,96727.28
2022-08-07T15:38:51.652Z,96723.56
2022-08-07T15:42:44.296Z,96715.31
2022-08-07T15:44:15.047Z,96716.22
2022-08-07T15:46:51.762Z,96713.06
2022-08-07T15:49:25.356Z,96709.38
2022-08-07T15:52:14.036Z,96701.31
2022-08-07T15:54:47.890Z,96704.06
2022-08-07T15:57:28.174Z,96705.88
2022-08-07T16:00:08.534Z,96711.03
2022-08-07T16:02:56.789Z,96714.22
2022-08-07T16:05:31.311Z,96709.78
2022-08-07T16:08:32.106Z,96705.50
2022-08-07T16:10:57.437Z,96708.94
2022-08-07T16:13:58.277Z,96702.97
2022-08-07T16:16:48.086Z,96706.25
2022-08-07T16:19:41.884Z,96706.19
2022-08-07T16:22:33.795Z,96708.91
2022-08-07T16:25:55.393Z,96704.28
2022-08-07T16:30:07.091Z,96690.84
2022-08-07T16:31:50.432Z,96693.91
2022-08-07T16:34:10.441Z,96701.44
2022-08-07T16:37:02.783Z,96700.34
2022-08-07T16:39:55.596Z,96699.66
2022-08-07T16:42:32.955Z,96698.72
2022-08-07T16:48:29.949Z,96686.28
2022-08-07T16:51:13.465Z,96687.31
2022-08-07T16:54:06.031Z,96690.06
2022-08-07T16:56:50.084Z,96690.63
2022-08-07T16:59:46.403Z,96689.59
2022-08-07T17:02:52.287Z,96677.28
2022-08-07T17:06:02.348Z,96671.56
2022-08-07T17:08:20.577Z,96667.59
2022-08-07T17:10:56.125Z,96665.38
2022-08-07T17:14:17.816Z,96675.44
2022-08-07T17:16:56.188Z,96670.59
2022-08-07T17:20:02.908Z,96687.19
2022-08-07T17:22:30.289Z,96692.81
2022-08-07T17:25:15.705Z,96698.38
2022-08-07T17:27:51.831Z,96702.72
2022-08-07T17:30:27.149Z,96710.00
2022-08-07T17:34:08.791Z,96704.56
2022-08-07T17:36:05.221Z,96699.13
2022-08-07T17:38:50.976Z,96693.56
2022-08-07T17:42:04.207Z,96692.25
2022-08-07T17:44:33.650Z,96690.75
2022-08-07T17:47:05.110Z,96692.44
2022-08-07T17:49:44.961Z,96696.78
2022-08-07T17:52:19.295Z,96698.09
2022-08-07T17:54:54.607Z,96690.06
2022-08-07T17:57:56.529Z,96693.81
2022-08-07T18:00:34.475Z,96711.25
2022-08-07T18:03:18.546Z,96719.03
2022-08-07T18:06:03.424Z,96714.28
2022-08-07T18:09:01.153Z,96713.34
2022-08-07T18:12:12.003Z,96711.53
2022-08-07T18:14:25.040Z,96717.78
2022-08-07T18:16:58.654Z,96710.47
2022-08-07T18:21:07.526Z,96715.41
2022-08-07T18:22:26.240Z,96719.19
2022-08-07T18:25:01.489Z,96722.88
2022-08-07T18:27:49.778Z,96727.53
2022-08-07T18:30:32.935Z,96727.41
2022-08-07T18:33:28.322Z,96725.88
2022-08-07T18:36:03.752Z,96727.72
2022-08-07T18:38:55.823Z,96728.00
2022-08-07T18:41:45.383Z,96721.84
2022-08-07T18:44:23.540Z,96719.97
2022-08-07T18:47:00.071Z,96722.75
2022-08-07T18:50:31.211Z,96714.91
2022-08-07T18:52:54.491Z,96725.41
2022-08-07T18:55:40.761Z,96728.84
2022-08-07T18:58:20.706Z,96735.41
2022-08-07T19:00:54.217Z,96732.19
2022-08-07T19:03:38.230Z,96749.63
2022-08-07T19:06:10.339Z,96741.63
2022-08-07T19:08:58.609Z,96743.50
2022-08-07T19:11:36.498Z,96743.66
2022-08-07T19:14:16.620Z,96742.34
2022-08-07T19:17:04.946Z,96745.66
2022-08-07T19:32:44.278Z,96745.88
2022-08-07T19:35:16.193Z,96752.94
2022-08-07T19:37:57.363Z,96760.09
2022-08-07T19:40:30.845Z,96759.38
2022-08-07T19:42:59.705Z,96763.75
2022-08-07T19:46:04.917Z,96753.81
2022-08-07T19:48:24.127Z,96750.09
2022-08-07T19:50:53.902Z,96745.72
2022-08-07T19:54:32.670Z,96754.41
2022-08-07T19:57:50.909Z,96753.81
2022-08-07T19:59:02.582Z,96756.84
2022-08-07T20:01:55.844Z,96752.72
2022-08-07T20:04:31.425Z,96753.34
2022-08-07T20:07:09.197Z,96747.94
2022-08-07T20:10:36.677Z,96750.41
2022-08-07T20:12:35.961Z,96751.50
2022-08-07T20:15:09.707Z,96749.91
2022-08-07T20:18:01.835Z,96758.88
2022-08-07T20:20:35.650Z,96755.84
2022-08-07T20:23:11.014Z,96748.81
2022-08-07T20:25:55.146Z,96750.72
2022-08-07T20:28:29.975Z,96762.38
2022-08-07T20:31:00.279Z,96762.63
2022-08-07T20:33:37.545Z,96762.09
2022-08-07T20:36:09.736Z,96763.44
2022-08-07T20:38:53.471Z,96763.16
2022-08-07T20:41:34.010Z,96764.78
2022-08-07T20:44:12.590Z,96764.78
2022-08-07T20:46:44.886Z,96765.31
2022-08-07T20:50:00.447Z,96761.84
2022-08-07T20:52:16.590Z,96755.03
2022-08-07T20:54:53.427Z,96762.06
2022-08-07T20:57:25.929Z,96766.16
2022-08-07T21:00:06.636Z,96762.09
2022-08-07T21:02:57.638Z,96755.59
2022-08-07T21:05:54.418Z,96760.75
2022-08-07T21:08:37.170Z,96761.00
2022-08-07T21:11:10.812Z,96761.81
2022-08-07T21:13:57.420Z,96752.88
2022-08-07T21:16:37.701Z,96758.28
2022-08-07T21:19:15.943Z,96761.03
2022-08-07T21:21:56.919Z,96757.78
2022-08-07T21:24:33.705Z,96757.78
2022-08-07T21:27:12.571Z,96756.16
2022-08-07T21:29:52.998Z,96757.78
2022-08-07T21:32:48.907Z,96759.94
2022-08-07T21:35:18.542Z,96766.97
2022-08-07T21:38:13.712Z,96769.69
2022-08-07T21:40:51.232Z,96770.78
2022-08-07T21:43:26.086Z,96760.78
2022-08-07T21:46:25.159Z,96758.34
2022-08-07T21:49:15.081Z,96766.72
2022-08-07T21:51:58.592Z,96771.31
2022-08-07T21:54:37.448Z,96765.63
2022-08-07T21:57:40.004Z,96769.16
2022-08-07T22:00:22.422Z,96770.25
2022-08-07T22:03:06.178Z,96754.53
2022-08-07T22:05:46.138Z,96767.53
2022-08-07T22:08:19.692Z,96767.81
2022-08-07T22:10:50.814Z,96767.25
2022-08-07T22:13:24.254Z,96750.75
2022-08-07T22:16:43.462Z,96771.84
2022-08-07T22:19:08.161Z,96764.00
2022-08-07T22:22:05.115Z,96770.75
2022-08-07T22:24:37.116Z,96767.28
2022-08-07T22:27:11.908Z,96770.50
2022-08-07T22:29:48.197Z,96772.69
2022-08-07T22:32:25.285Z,96778.34
2022-08-07T22:34:55.525Z,96770.50
2022-08-07T22:38:02.975Z,96771.31
2022-08-07T22:40:29.624Z,96752.91
2022-08-07T22:43:03.891Z,96759.41
2022-08-07T22:46:21.341Z,96766.44
2022-08-07T22:48:56.286Z,96767.53
2022-08-07T22:51:51.979Z,96764.25
2022-08-07T22:54:48.911Z,96767.00
2022-08-07T22:57:42.493Z,96762.63
2022-08-07T23:00:15.952Z,96760.50
2022-08-07T23:03:09.460Z,96760.75
2022-08-07T23:06:10.234Z,96754.00
2022-08-07T23:08:58.517Z,96751.84
2022-08-07T23:11:59.272Z,96761.00
2022-08-07T23:14:38.819Z,96753.97
2022-08-07T23:17:27.232Z,96755.06
2022-08-07T23:20:40.527Z,96759.63
2022-08-07T23:24:05.086Z,96764.25
2022-08-07T23:26:23.435Z,96764.72
2022-08-07T23:29:43.643Z,96765.81
2022-08-07T23:34:22.101Z,96759.91
2022-08-07T23:35:16.795Z,96752.03
2022-08-07T23:38:19.232Z,96754.97
2022-08-07T23:41:33.059Z,96757.69
2022-08-07T23:44:24.728Z,96759.31
2022-08-07T23:47:20.846Z,96754.97
2022-08-07T23:50:05.335Z,96751.19
2022-08-07T23:53:00.535Z,96765.16
2022-08-07T23:55:47.153Z,96761.94
2022-08-07T23:58:26.807Z,96759.25
